Time;durP1;ratioP1;P1;durP2;ratioP2;P2;SDS_P1;SDS_P2;PMS_P1;PMS_P2;Temp;Humidity;BMP_temperature;BMP_pressure;BME280_temperature;BME280_humidity;BME280_pressure;Samples;Min_cycle;Max_cycle;Signal;HPM_P1;HPM_P2
2023/05/20 00:01:35;;;;;;;32.55;15.77;;;11.20;99.90;;;;;;4963062;29;20114;-92
2023/05/20 00:04:01;;;;;;;32.78;16.73;;;11.10;99.90;;;;;;4961210;29;20063;-93
2023/05/20 00:06:26;;;;;;;34.53;16.25;;;11.10;99.90;;;;;;4961991;29;20454;-92
2023/05/20 00:08:54;;;;;;;34.30;16.77;;;11.00;99.90;;;;;;4960587;29;20420;-93
2023/05/20 00:11:20;;;;;;;36.80;18.98;;;10.90;99.90;;;;;;4958692;29;20031;-94
2023/05/20 00:13:46;;;;;;;33.25;17.77;;;10.90;99.90;;;;;;4958884;28;20030;-93
2023/05/20 00:16:11;;;;;;;36.25;18.33;;;10.80;99.90;;;;;;4958508;29;20493;-94
2023/05/20 00:18:37;;;;;;;30.92;17.20;;;10.80;99.90;;;;;;4958250;29;20042;-94
2023/05/20 00:21:03;;;;;;;31.73;17.55;;;10.70;99.90;;;;;;4958708;29;20038;-94
2023/05/20 00:23:28;;;;;;;40.05;17.58;;;10.60;99.90;;;;;;4958307;29;20081;-94
2023/05/20 00:25:54;;;;;;;35.25;16.98;;;10.60;99.90;;;;;;4958565;29;20031;-94
2023/05/20 00:28:21;;;;;;;32.33;17.00;;;10.50;99.90;;;;;;4959468;29;20043;-93
2023/05/20 00:30:47;;;;;;;33.63;16.98;;;10.40;99.90;;;;;;4959600;28;20027;-94
2023/05/20 00:33:13;;;;;;;31.20;16.70;;;10.40;99.90;;;;;;4958503;29;20164;-94
2023/05/20 00:35:38;;;;;;;36.13;18.23;;;10.30;99.90;;;;;;4962509;29;20050;-93
2023/05/20 00:38:04;;;;;;;34.75;18.00;;;10.20;99.90;;;;;;4960001;29;20035;-94
2023/05/20 00:40:30;;;;;;;37.47;17.20;;;10.20;99.90;;;;;;4958518;29;20051;-94
2023/05/20 00:42:55;;;;;;;35.38;17.33;;;10.10;99.90;;;;;;4957393;29;20038;-94
2023/05/20 00:45:21;;;;;;;36.28;16.88;;;10.10;99.90;;;;;;4957338;29;20031;-93
2023/05/20 00:47:48;;;;;;;33.75;17.65;;;10.10;99.90;;;;;;4958152;28;20023;-94
2023/05/20 00:50:15;;;;;;;33.88;17.17;;;10.00;99.90;;;;;;4956976;29;20028;-94
2023/05/20 00:52:44;;;;;;;31.10;16.63;;;10.00;99.90;;;;;;4956960;29;20057;-94
2023/05/20 00:55:09;;;;;;;35.75;15.43;;;9.90;99.90;;;;;;4957296;29;20493;-94
2023/05/20 00:57:35;;;;;;;33.42;16.40;;;9.90;99.90;;;;;;4957311;29;20062;-94
2023/05/20 01:00:04;;;;;;;43.95;17.88;;;9.90;99.90;;;;;;4956974;29;20051;-94
2023/05/20 01:02:29;;;;;;;34.10;17.25;;;9.90;99.90;;;;;;4957001;29;20065;-94
2023/05/20 01:04:56;;;;;;;32.70;18.13;;;9.80;99.90;;;;;;4961058;28;20027;-95
2023/05/20 01:07:22;;;;;;;35.20;17.65;;;9.80;99.90;;;;;;4965326;29;20038;-93
2023/05/20 01:09:47;;;;;;;36.33;19.13;;;9.80;99.90;;;;;;4959670;29;20023;-94
2023/05/20 01:12:29;;;;;;;39.80;19.38;;;9.80;99.90;;;;;;4959588;29;20046;-94
2023/05/20 01:15:02;;;;;;;37.10;19.83;;;9.70;99.90;;;;;;4960136;29;20070;-95
2023/05/20 01:17:31;;;;;;;35.35;18.88;;;9.70;99.90;;;;;;4959027;29;20031;-94
2023/05/20 01:19:58;;;;;;;37.10;18.67;;;9.70;99.90;;;;;;4943661;29;20397;-93
2023/05/20 01:22:28;;;;;;;42.05;20.50;;;9.60;99.90;;;;;;4942066;29;20114;-94
2023/05/20 01:24:55;;;;;;;43.50;21.98;;;9.60;99.90;;;;;;4938042;29;20031;-95
2023/05/20 01:27:22;;;;;;;54.85;25.70;;;9.60;99.90;;;;;;4936898;29;20032;-94
2023/05/20 01:29:49;;;;;;;77.20;30.52;;;9.60;99.90;;;;;;4936785;29;20024;-95
2023/05/20 01:32:23;;;;;;;81.05;31.33;;;9.70;99.90;;;;;;4936830;29;20055;-96
2023/05/20 01:34:51;;;;;;;84.30;33.35;;;9.70;99.90;;;;;;4936958;29;20225;-94
2023/05/20 01:37:18;;;;;;;80.85;33.10;;;9.70;99.90;;;;;;4946495;29;20106;-94
2023/05/20 01:39:46;;;;;;;79.18;31.67;;;9.70;99.90;;;;;;4955773;29;20046;-96
2023/05/20 01:42:14;;;;;;;54.67;23.40;;;9.70;99.90;;;;;;4955351;29;20023;-93
2023/05/20 01:44:40;;;;;;;61.17;26.85;;;9.70;99.90;;;;;;4955441;29;20082;-93
2023/05/20 01:47:06;;;;;;;70.68;30.05;;;9.70;99.90;;;;;;4956642;29;20050;-94
2023/05/20 01:49:32;;;;;;;78.38;31.13;;;9.70;99.90;;;;;;4956316;28;20473;-92
2023/05/20 01:51:58;;;;;;;70.80;30.27;;;9.60;99.90;;;;;;4954457;28;20027;-92
2023/05/20 01:54:23;;;;;;;82.70;31.17;;;9.70;99.90;;;;;;4954385;29;20031;-92
2023/05/20 01:56:49;;;;;;;78.05;31.27;;;9.60;99.90;;;;;;4955382;29;20027;-93
2023/05/20 01:59:15;;;;;;;70.90;30.63;;;9.60;99.90;;;;;;4954019;28;20050;-93
2023/05/20 02:01:41;;;;;;;76.95;31.80;;;9.60;99.90;;;;;;4954229;28;20500;-93
2023/05/20 02:04:06;;;;;;;73.10;30.33;;;9.50;99.90;;;;;;4953914;29;20023;-93
2023/05/20 02:06:32;;;;;;;73.70;28.73;;;9.50;99.90;;;;;;4954459;29;20030;-93
2023/05/20 02:08:57;;;;;;;68.55;28.10;;;9.50;99.90;;;;;;4954149;29;20019;-93
2023/05/20 02:11:23;;;;;;;74.60;30.42;;;9.50;99.90;;;;;;4954159;29;20059;-93
2023/05/20 02:13:50;;;;;;;79.32;30.85;;;9.40;99.90;;;;;;4954250;29;20027;-93
2023/05/20 02:16:16;;;;;;;71.97;28.83;;;9.40;99.90;;;;;;4954168;28;20051;-94
2023/05/20 02:18:41;;;;;;;65.38;28.67;;;9.40;99.90;;;;;;4956787;29;20041;-92
2023/05/20 02:21:08;;;;;;;71.20;28.40;;;9.40;99.90;;;;;;4958350;28;20029;-93
2023/05/20 02:23:34;;;;;;;73.05;30.45;;;9.30;99.90;;;;;;4958198;29;20039;-93
2023/05/20 02:26:01;;;;;;;63.35;25.77;;;9.30;99.90;;;;;;4958073;28;20038;-94
2023/05/20 02:28:26;;;;;;;63.17;27.10;;;9.30;99.90;;;;;;4958082;29;20035;-93
2023/05/20 02:30:52;;;;;;;68.50;27.77;;;9.30;99.90;;;;;;4962349;29;20113;-93
2023/05/20 02:33:18;;;;;;;63.65;27.25;;;9.20;99.90;;;;;;4964213;29;20512;-92
2023/05/20 02:35:44;;;;;;;62.92;26.88;;;9.20;99.90;;;;;;4958860;29;20024;-93
2023/05/20 02:38:11;;;;;;;59.95;26.25;;;9.10;99.90;;;;;;4958336;29;20555;-92
2023/05/20 02:40:36;;;;;;;64.32;26.42;;;9.10;99.90;;;;;;4958475;29;20027;-93
2023/05/20 02:43:02;;;;;;;65.18;26.75;;;9.00;99.90;;;;;;4957641;28;20035;-92
2023/05/20 02:45:28;;;;;;;51.40;23.80;;;9.00;99.90;;;;;;4958209;29;20035;-93
2023/05/20 02:47:54;;;;;;;56.50;22.90;;;9.00;99.90;;;;;;4958067;29;20034;-93
2023/05/20 02:50:19;;;;;;;52.72;22.77;;;8.90;99.90;;;;;;4958454;29;20449;-94
2023/05/20 02:52:46;;;;;;;61.22;25.67;;;8.90;99.90;;;;;;4965684;28;20023;-92
2023/05/20 02:55:12;;;;;;;58.47;23.63;;;8.80;99.90;;;;;;4966202;28;20114;-93
2023/05/20 02:57:39;;;;;;;56.15;22.10;;;8.80;99.90;;;;;;4957506;29;20035;-94
2023/05/20 03:00:06;;;;;;;50.03;22.20;;;8.70;99.90;;;;;;4957586;29;20601;-93
2023/05/20 03:02:33;;;;;;;51.30;21.25;;;8.70;99.90;;;;;;4956986;29;20035;-94
2023/05/20 03:04:59;;;;;;;46.55;20.45;;;8.70;99.90;;;;;;4957259;28;20031;-94
2023/05/20 03:07:25;;;;;;;47.05;19.83;;;8.70;99.90;;;;;;4942873;29;20066;-94
2023/05/20 03:09:51;;;;;;;42.22;18.83;;;8.60;99.90;;;;;;4958190;28;20030;-94
2023/05/20 03:12:16;;;;;;;45.90;21.05;;;8.60;99.90;;;;;;4958314;28;20114;-92
2023/05/20 03:14:42;;;;;;;53.53;20.33;;;8.60;99.90;;;;;;4957837;29;20078;-93
2023/05/20 03:17:09;;;;;;;42.70;19.58;;;8.60;99.90;;;;;;4958947;28;20035;-94
2023/05/20 03:19:34;;;;;;;42.88;19.15;;;8.60;99.90;;;;;;4957265;29;20433;-93
2023/05/20 03:22:00;;;;;;;46.35;20.08;;;8.60;99.90;;;;;;4957184;29;20035;-92
2023/05/20 03:24:27;;;;;;;49.42;19.65;;;8.50;99.90;;;;;;4957329;29;20031;-93
2023/05/20 03:26:53;;;;;;;47.85;22.70;;;8.50;99.90;;;;;;4957664;29;20031;-93
2023/05/20 03:29:18;;;;;;;48.47;19.88;;;8.50;99.90;;;;;;4957277;28;20042;-93
2023/05/20 03:31:45;;;;;;;44.60;19.70;;;8.50;99.90;;;;;;4957465;29;20023;-93
2023/05/20 03:34:10;;;;;;;47.20;20.20;;;8.40;99.90;;;;;;4957916;28;20170;-93
2023/05/20 03:36:36;;;;;;;43.60;20.00;;;8.40;99.90;;;;;;4958599;29;20051;-92
2023/05/20 03:39:03;;;;;;;49.30;21.50;;;8.40;99.90;;;;;;4958569;29;20056;-93
2023/05/20 03:41:28;;;;;;;46.20;20.85;;;8.40;99.90;;;;;;4958462;29;20433;-94
2023/05/20 03:43:54;;;;;;;48.75;21.73;;;8.30;99.90;;;;;;4958026;29;20027;-94
2023/05/20 03:46:20;;;;;;;49.08;20.20;;;8.30;99.90;;;;;;4958546;29;20078;-94
2023/05/20 03:48:46;;;;;;;45.08;19.58;;;8.30;99.90;;;;;;4959022;29;20552;-94
2023/05/20 03:51:11;;;;;;;51.58;20.67;;;8.30;99.90;;;;;;4958470;29;20039;-93
2023/05/20 03:53:37;;;;;;;42.47;20.23;;;8.30;99.90;;;;;;4958789;29;20055;-93
2023/05/20 03:56:03;;;;;;;46.33;19.88;;;8.30;99.90;;;;;;4960808;29;20388;-93
2023/05/20 03:58:30;;;;;;;41.50;19.88;;;8.20;99.90;;;;;;4968828;29;20035;-93
2023/05/20 04:00:55;;;;;;;51.35;20.08;;;8.20;99.90;;;;;;4960045;29;20027;-95
2023/05/20 04:03:22;;;;;;;43.85;19.73;;;8.10;99.90;;;;;;4960359;29;20035;-95
2023/05/20 04:05:48;;;;;;;45.35;20.08;;;8.10;99.90;;;;;;4962014;29;20117;-92
2023/05/20 04:08:17;;;;;;;47.83;19.95;;;8.10;99.90;;;;;;4962433;29;20035;-93
2023/05/20 04:10:43;;;;;;;47.05;20.80;;;8.00;99.90;;;;;;4944627;29;20043;-94
2023/05/20 04:13:10;;;;;;;54.42;22.63;;;8.00;99.90;;;;;;4959680;29;20544;-94
2023/05/20 04:15:37;;;;;;;47.17;20.45;;;8.00;99.90;;;;;;4959354;29;20043;-93
2023/05/20 04:18:04;;;;;;;44.83;20.20;;;7.90;99.90;;;;;;4959750;29;20035;-93
2023/05/20 04:20:30;;;;;;;44.88;20.50;;;7.90;99.90;;;;;;4959611;28;20083;-95
2023/05/20 04:22:56;;;;;;;54.15;21.52;;;7.80;99.90;;;;;;4957244;29;20039;-92
2023/05/20 04:25:22;;;;;;;44.78;22.15;;;7.80;99.90;;;;;;4958277;29;20078;-94
2023/05/20 04:27:48;;;;;;;44.85;21.13;;;7.70;99.90;;;;;;4958427;29;20031;-93
2023/05/20 04:30:17;;;;;;;44.90;22.02;;;7.60;99.90;;;;;;4959077;29;20027;-94
2023/05/20 04:32:43;;;;;;;45.08;21.77;;;7.60;99.90;;;;;;4957627;29;20066;-93
2023/05/20 04:35:12;;;;;;;44.22;21.13;;;7.60;99.90;;;;;;4957303;29;20484;-93
2023/05/20 04:37:38;;;;;;;48.13;22.10;;;7.50;99.90;;;;;;4957622;29;20031;-93
2023/05/20 04:40:08;;;;;;;41.10;21.77;;;7.50;99.90;;;;;;4958486;28;20057;-93
2023/05/20 04:42:33;;;;;;;48.00;21.90;;;7.50;99.90;;;;;;4977306;29;20249;-93
2023/05/20 04:45:04;;;;;;;52.55;23.95;;;7.50;99.90;;;;;;4977797;29;20026;-93
2023/05/20 04:47:37;;;;;;;56.97;22.92;;;7.40;99.90;;;;;;4978578;28;20031;-92
2023/05/20 04:50:09;;;;;;;50.67;22.73;;;7.40;99.90;;;;;;4962691;29;20039;-93
2023/05/20 04:52:36;;;;;;;46.10;21.92;;;7.40;99.90;;;;;;4972861;29;20055;-92
2023/05/20 04:55:08;;;;;;;48.08;23.63;;;7.40;99.90;;;;;;4969947;29;20037;-91
2023/05/20 04:57:34;;;;;;;50.58;22.58;;;7.40;99.90;;;;;;4965523;29;20039;-94
2023/05/20 05:00:00;;;;;;;51.10;23.60;;;7.40;99.90;;;;;;4957990;29;20054;-92
2023/05/20 05:02:26;;;;;;;50.28;23.52;;;7.40;99.90;;;;;;4957373;29;20046;-92
2023/05/20 05:04:52;;;;;;;48.80;21.67;;;7.40;99.90;;;;;;4957528;29;20039;-93
2023/05/20 05:07:17;;;;;;;42.75;22.05;;;7.40;99.90;;;;;;4957333;29;20062;-93
2023/05/20 05:09:43;;;;;;;47.22;22.45;;;7.40;99.90;;;;;;4957540;29;20122;-92
2023/05/20 05:12:09;;;;;;;48.50;22.27;;;7.40;99.90;;;;;;4958434;29;20114;-92
2023/05/20 05:14:34;;;;;;;51.30;23.52;;;7.30;99.90;;;;;;4957854;29;20117;-91
2023/05/20 05:17:00;;;;;;;50.30;22.52;;;7.30;99.90;;;;;;4959341;29;20019;-92
2023/05/20 05:19:26;;;;;;;50.47;23.52;;;7.30;99.90;;;;;;4961535;29;20046;-93
2023/05/20 05:21:51;;;;;;;44.42;22.73;;;7.30;99.90;;;;;;4958128;29;20537;-92
2023/05/20 05:24:17;;;;;;;51.83;23.77;;;7.40;99.90;;;;;;4958005;29;20038;-92
2023/05/20 05:26:43;;;;;;;52.50;23.45;;;7.40;99.90;;;;;;4956174;29;20028;-91
2023/05/20 05:29:08;;;;;;;55.85;23.15;;;7.40;99.90;;;;;;4956784;29;20046;-93
2023/05/20 05:31:34;;;;;;;42.50;21.05;;;7.40;99.90;;;;;;4956706;29;20114;-93
2023/05/20 05:34:00;;;;;;;45.78;21.02;;;7.40;99.90;;;;;;4956318;29;20487;-92
2023/05/20 05:36:26;;;;;;;48.70;22.95;;;7.40;99.90;;;;;;4956674;29;20090;-93
2023/05/20 05:38:52;;;;;;;56.00;22.75;;;7.40;99.90;;;;;;4957068;29;20382;-92
2023/05/20 05:41:18;;;;;;;50.78;23.27;;;7.40;99.90;;;;;;4957879;29;20032;-92
2023/05/20 05:43:45;;;;;;;51.40;24.50;;;7.40;99.90;;;;;;4963746;29;20126;-92
2023/05/20 05:46:10;;;;;;;44.15;20.70;;;7.40;99.90;;;;;;4959503;29;20046;-92
2023/05/20 05:48:36;;;;;;;49.47;21.45;;;7.40;99.90;;;;;;4956093;29;20028;-93
2023/05/20 05:51:01;;;;;;;41.72;19.73;;;7.40;99.90;;;;;;4958631;28;20038;-92
2023/05/20 05:53:28;;;;;;;47.97;19.23;;;7.50;99.90;;;;;;4955021;29;20063;-94
2023/05/20 05:55:54;;;;;;;45.72;17.92;;;7.50;99.90;;;;;;4956172;29;20127;-94
2023/05/20 05:58:20;;;;;;;40.28;18.40;;;7.60;99.90;;;;;;4955679;29;20580;-91
2023/05/20 06:00:45;;;;;;;35.33;17.45;;;7.60;99.90;;;;;;4959067;29;20062;-94
2023/05/20 06:03:11;;;;;;;46.70;18.92;;;7.70;99.90;;;;;;4957837;29;20027;-94
2023/05/20 06:05:37;;;;;;;40.75;17.98;;;7.80;99.90;;;;;;4944627;29;20091;-94
2023/05/20 06:08:04;;;;;;;38.75;17.13;;;7.80;99.90;;;;;;4954819;29;20539;-93
2023/05/20 06:10:33;;;;;;;42.15;18.48;;;7.90;99.90;;;;;;4961467;29;20023;-93
2023/05/20 06:12:59;;;;;;;45.70;19.85;;;7.90;99.90;;;;;;4954927;29;20035;-93
2023/05/20 06:15:25;;;;;;;44.55;19.88;;;8.00;99.90;;;;;;4958948;29;20057;-93
2023/05/20 06:17:50;;;;;;;46.90;20.80;;;8.10;99.90;;;;;;4958170;29;20068;-93
2023/05/20 06:20:16;;;;;;;40.92;19.95;;;8.10;99.90;;;;;;4964462;29;20031;-93
2023/05/20 06:22:42;;;;;;;45.67;20.65;;;8.20;99.90;;;;;;4960784;29;20031;-94
2023/05/20 06:25:08;;;;;;;50.05;21.45;;;8.30;99.90;;;;;;4962304;29;20046;-94
2023/05/20 06:27:34;;;;;;;49.40;22.10;;;8.30;99.90;;;;;;4954274;29;20107;-93
2023/05/20 06:29:59;;;;;;;48.05;21.17;;;8.50;99.90;;;;;;4966102;28;20023;-94
2023/05/20 06:32:25;;;;;;;49.63;22.25;;;8.50;99.90;;;;;;4947140;29;20027;-93
2023/05/20 06:34:51;;;;;;;46.03;21.35;;;8.60;99.90;;;;;;4947294;29;20071;-95
2023/05/20 06:37:16;;;;;;;47.03;20.55;;;8.60;99.90;;;;;;4944888;29;20071;-93
2023/05/20 06:39:42;;;;;;;49.75;21.67;;;8.70;99.90;;;;;;4944070;29;20094;-94
2023/05/20 06:42:08;;;;;;;49.67;21.50;;;8.80;99.90;;;;;;4945461;29;20078;-92
2023/05/20 06:44:33;;;;;;;47.60;20.90;;;8.80;99.90;;;;;;4948695;29;20019;-92
2023/05/20 06:46:59;;;;;;;50.67;20.88;;;8.90;99.90;;;;;;4943331;29;20030;-93
2023/05/20 06:49:25;;;;;;;33.78;16.42;;;9.00;99.90;;;;;;4956199;29;20509;-93
2023/05/20 06:51:50;;;;;;;33.05;15.80;;;9.10;99.90;;;;;;4952935;29;20027;-93
2023/05/20 06:54:16;;;;;;;32.65;16.33;;;9.30;99.90;;;;;;4937360;29;20024;-93
2023/05/20 06:56:43;;;;;;;32.13;15.82;;;9.40;99.90;;;;;;4937881;29;20208;-93
2023/05/20 06:59:08;;;;;;;33.70;16.10;;;9.50;99.90;;;;;;4936783;29;20042;-93
2023/05/20 07:01:34;;;;;;;36.10;17.35;;;9.70;99.90;;;;;;4936628;29;20401;-94
2023/05/20 07:04:00;;;;;;;32.08;16.17;;;9.80;99.90;;;;;;4938554;29;20032;-94
2023/05/20 07:06:26;;;;;;;35.22;16.55;;;10.00;99.90;;;;;;4942129;29;20374;-94
2023/05/20 07:08:51;;;;;;;34.45;15.75;;;10.00;99.90;;;;;;4941322;29;20043;-93
2023/05/20 07:11:17;;;;;;;33.88;15.73;;;10.20;99.90;;;;;;4940400;29;20034;-92
2023/05/20 07:13:43;;;;;;;36.70;16.40;;;10.30;99.90;;;;;;4942340;29;20117;-94
2023/05/20 07:16:08;;;;;;;32.20;14.95;;;10.40;99.90;;;;;;4943584;29;20071;-92
2023/05/20 07:32:37;;;;;;;30.52;13.00;;;10.60;99.90;;;;;;6214216;22;2410110;-95
2023/05/20 07:35:03;;;;;;;31.80;14.05;;;11.40;99.90;;;;;;6316302;22;20018;-94
2023/05/20 07:37:28;;;;;;;26.50;12.75;;;11.50;99.90;;;;;;6316092;22;19999;-93
2023/05/20 07:39:54;;;;;;;36.35;14.68;;;11.50;99.90;;;;;;6314972;22;20385;-95
2023/05/20 07:42:20;;;;;;;32.58;14.98;;;11.60;99.90;;;;;;6317320;22;20011;-94
2023/05/20 07:44:46;;;;;;;31.30;13.95;;;11.70;99.90;;;;;;6318820;22;19995;-93
2023/05/20 07:47:14;;;;;;;33.60;15.82;;;11.80;99.90;;;;;;6317020;22;19999;-93
2023/05/20 07:49:39;;;;;;;39.70;17.95;;;11.90;99.90;;;;;;6264501;22;20038;-93
2023/05/20 07:52:05;;;;;;;42.63;19.77;;;11.90;99.90;;;;;;6318286;22;20002;-93
2023/05/20 07:54:31;;;;;;;42.95;18.98;;;12.00;99.90;;;;;;6287307;22;20003;-94
2023/05/20 07:56:59;;;;;;;34.42;15.98;;;12.10;99.90;;;;;;6318475;22;20001;-94
2023/05/20 07:59:24;;;;;;;34.72;15.52;;;12.20;99.90;;;;;;6317447;22;20007;-95
2023/05/20 08:01:50;;;;;;;39.20;14.80;;;12.20;99.90;;;;;;6315165;22;20015;-94
2023/05/20 08:04:16;;;;;;;37.95;15.30;;;12.30;99.90;;;;;;6317643;22;20490;-94
2023/05/20 08:06:43;;;;;;;37.88;14.85;;;12.40;99.90;;;;;;6316565;22;20007;-93
2023/05/20 08:09:09;;;;;;;34.90;14.02;;;12.40;99.90;;;;;;6317328;22;19999;-91
2023/05/20 08:11:34;;;;;;;28.38;12.93;;;12.60;99.90;;;;;;6317971;22;20444;-93
2023/05/20 08:14:01;;;;;;;31.60;12.60;;;12.70;99.90;;;;;;6330037;22;19991;-94
2023/05/20 08:16:27;;;;;;;32.20;12.95;;;12.80;99.90;;;;;;6332938;22;20074;-94
2023/05/20 08:18:52;;;;;;;27.80;11.68;;;12.90;99.90;;;;;;6304129;22;20010;-94
2023/05/20 08:21:18;;;;;;;28.80;11.40;;;13.00;99.90;;;;;;6332681;22;20009;-94
2023/05/20 08:23:44;;;;;;;18.85;8.57;;;13.10;99.90;;;;;;6333667;22;20006;-93
2023/05/20 08:26:10;;;;;;;26.48;11.23;;;13.20;99.90;;;;;;6332560;22;20003;-94
2023/05/20 08:28:36;;;;;;;26.48;11.02;;;13.40;99.90;;;;;;6304414;22;20000;-93
2023/05/20 08:31:02;;;;;;;25.73;9.88;;;13.50;99.90;;;;;;6264658;22;20022;-95
2023/05/20 08:33:28;;;;;;;22.77;9.38;;;13.70;99.90;;;;;;6283522;22;19995;-93
2023/05/20 08:35:55;;;;;;;17.65;7.75;;;13.80;99.90;;;;;;6282275;22;20003;-94
2023/05/20 08:38:21;;;;;;;18.27;7.40;;;14.00;99.90;;;;;;6257471;22;19999;-95
2023/05/20 08:40:56;;;;;;;19.15;7.10;;;14.10;99.90;;;;;;6256543;22;20065;-94
2023/05/20 08:43:25;;;;;;;16.55;6.78;;;14.20;99.90;;;;;;6282844;22;19995;-94
2023/05/20 08:45:51;;;;;;;18.30;7.10;;;14.40;99.90;;;;;;6283369;22;20027;-95
2023/05/20 08:48:18;;;;;;;14.10;5.95;;;14.50;99.90;;;;;;6259513;22;20003;-95
2023/05/20 08:50:50;;;;;;;15.80;6.40;;;14.60;99.90;;;;;;6263992;22;19999;-93
2023/05/20 08:53:16;;;;;;;14.35;6.90;;;14.70;99.70;;;;;;6261751;22;20008;-93
2023/05/20 08:55:51;;;;;;;17.35;6.75;;;14.90;98.90;;;;;;6269593;22;20050;-95
2023/05/20 08:58:18;;;;;;;13.13;6.30;;;15.00;98.20;;;;;;6260840;22;20059;-93
2023/05/20 09:00:44;;;;;;;14.38;6.68;;;15.10;96.90;;;;;;6260456;22;20081;-94
2023/05/20 09:03:10;;;;;;;16.65;7.50;;;15.30;96.20;;;;;;6263300;22;20010;-95
2023/05/20 09:05:35;;;;;;;17.25;8.00;;;15.40;95.80;;;;;;6261187;22;20094;-96
2023/05/20 09:08:05;;;;;;;12.93;6.53;;;15.50;95.30;;;;;;6260765;22;20003;-94
2023/05/20 09:10:32;;;;;;;19.55;6.95;;;15.60;94.60;;;;;;6290063;22;20023;-95
2023/05/20 09:13:01;;;;;;;13.13;6.40;;;15.80;93.50;;;;;;6263072;22;20010;-95
2023/05/20 09:15:27;;;;;;;12.57;5.93;;;15.80;92.70;;;;;;6262687;22;20007;-95
2023/05/20 09:17:53;;;;;;;12.85;6.57;;;16.00;92.30;;;;;;6261530;22;20034;-95
2023/05/20 09:20:21;;;;;;;17.05;6.50;;;16.10;91.40;;;;;;6260898;22;20008;-94
2023/05/20 09:22:52;;;;;;;13.52;5.38;;;16.20;90.60;;;;;;6261989;22;20003;-95
2023/05/20 09:25:24;;;;;;;15.93;6.25;;;16.30;90.00;;;;;;6261961;22;20019;-94
2023/05/20 09:27:50;;;;;;;13.32;5.45;;;16.40;89.00;;;;;;6282338;22;20008;-94
2023/05/20 09:30:20;;;;;;;10.95;5.03;;;16.50;88.20;;;;;;6255958;22;20008;-94
2023/05/20 09:32:52;;;;;;;11.68;5.18;;;16.70;87.50;;;;;;6265170;22;20099;-95
2023/05/20 09:35:19;;;;;;;13.40;4.70;;;16.80;85.90;;;;;;6247229;22;20011;-94
2023/05/20 09:37:46;;;;;;;12.40;5.07;;;16.90;84.80;;;;;;6276217;22;20075;-95
2023/05/20 09:40:14;;;;;;;12.60;5.50;;;17.00;83.50;;;;;;6275365;22;20008;-93
2023/05/20 09:42:40;;;;;;;11.90;5.72;;;17.10;82.70;;;;;;6276903;22;20054;-94
2023/05/20 09:45:08;;;;;;;11.90;4.88;;;17.20;81.80;;;;;;6274283;22;20082;-94
2023/05/20 09:47:37;;;;;;;11.85;5.15;;;17.20;81.50;;;;;;6269546;22;20003;-94
2023/05/20 09:50:07;;;;;;;12.88;5.63;;;17.40;81.20;;;;;;6265998;22;20146;-93
2023/05/20 09:52:42;;;;;;;16.95;6.35;;;17.50;80.10;;;;;;6263505;22;20046;-94
2023/05/20 09:55:09;;;;;;;15.25;5.13;;;17.60;79.00;;;;;;6261606;22;20007;-94
2023/05/20 09:57:36;;;;;;;14.93;5.40;;;17.60;78.70;;;;;;6263445;22;20011;-95
2023/05/20 10:00:12;;;;;;;11.43;5.05;;;17.80;78.70;;;;;;6263399;22;20027;-94
2023/05/20 10:02:40;;;;;;;10.07;5.03;;;17.90;77.40;;;;;;6261943;22;20027;-94
2023/05/20 10:05:14;;;;;;;15.23;5.07;;;17.80;76.50;;;;;;6258644;22;20003;-95
2023/05/20 10:08:10;;;;;;;13.80;4.82;;;17.90;76.00;;;;;;6260234;22;20443;-95
2023/05/20 10:11:11;;;;;;;12.80;5.22;;;18.00;75.30;;;;;;6259344;22;20007;-94
2023/05/20 10:14:01;;;;;;;11.23;4.72;;;18.10;75.00;;;;;;6288023;22;20006;-93
2023/05/20 10:16:48;;;;;;;13.30;4.88;;;18.20;74.30;;;;;;6263621;22;20038;-94
2023/05/20 10:19:17;;;;;;;12.80;4.82;;;18.40;74.20;;;;;;6268262;22;20007;-93
2023/05/20 10:21:43;;;;;;;12.75;4.65;;;18.50;73.90;;;;;;6270546;22;20016;-94
2023/05/20 10:24:09;;;;;;;9.90;4.63;;;18.60;73.50;;;;;;6258300;22;20006;-93
2023/05/20 10:26:37;;;;;;;11.60;4.68;;;18.70;73.00;;;;;;6257624;22;20043;-93
2023/05/20 10:29:18;;;;;;;10.43;4.20;;;18.80;72.60;;;;;;6285498;22;20010;-93
2023/05/20 10:31:52;;;;;;;12.68;4.82;;;18.90;72.10;;;;;;6256668;22;20015;-94
2023/05/20 10:34:19;;;;;;;10.93;4.10;;;18.90;71.70;;;;;;6257456;22;20109;-94
2023/05/20 10:36:56;;;;;;;9.55;3.90;;;19.10;71.60;;;;;;6257633;22;20355;-95
2023/05/20 10:39:33;;;;;;;12.55;4.18;;;19.30;71.20;;;;;;6260453;22;20449;-94
2023/05/20 10:42:11;;;;;;;8.45;4.05;;;19.50;69.80;;;;;;6257089;22;20062;-95
2023/05/20 10:44:43;;;;;;;5.60;3.67;;;19.70;69.50;;;;;;6258068;22;20003;-94
2023/05/20 10:47:10;;;;;;;7.47;4.10;;;19.80;68.10;;;;;;6255669;22;20007;-95
2023/05/20 10:49:45;;;;;;;12.27;4.93;;;19.70;66.50;;;;;;6254451;22;20000;-94
2023/05/20 10:52:12;;;;;;;9.13;4.15;;;19.60;66.30;;;;;;6256589;22;20021;-94
2023/05/20 10:54:46;;;;;;;9.13;4.20;;;19.60;66.00;;;;;;6257632;22;20003;-95
2023/05/20 10:57:15;;;;;;;10.27;3.63;;;19.50;65.80;;;;;;6283657;22;20004;-94
2023/05/20 10:59:41;;;;;;;6.20;4.38;;;19.50;65.80;;;;;;6257230;22;20012;-95
2023/05/20 11:02:10;;;;;;;12.18;4.38;;;19.80;65.80;;;;;;6254500;22;19996;-95
2023/05/20 11:04:38;;;;;;;9.80;4.70;;;19.90;65.30;;;;;;6254796;22;20057;-94
2023/05/20 11:07:06;;;;;;;11.88;4.63;;;20.00;65.60;;;;;;6231446;22;20079;-94
2023/05/20 11:09:33;;;;;;;10.30;4.85;;;20.20;65.30;;;;;;6257750;22;20007;-94
2023/05/20 11:11:58;;;;;;;11.43;4.75;;;20.30;64.90;;;;;;6257123;22;20012;-95
2023/05/20 11:14:26;;;;;;;13.38;5.10;;;20.50;64.60;;;;;;6256977;22;20011;-94
2023/05/20 11:16:55;;;;;;;12.13;4.93;;;20.60;63.80;;;;;;6260164;22;20004;-95
2023/05/20 11:19:20;;;;;;;9.52;5.18;;;20.60;63.90;;;;;;6256818;22;20015;-95
2023/05/20 11:21:50;;;;;;;6.85;4.18;;;20.90;63.70;;;;;;6232265;22;20004;-95
2023/05/20 11:24:27;;;;;;;11.35;5.55;;;21.10;63.10;;;;;;6259428;22;20010;-95
2023/05/20 11:26:59;;;;;;;8.30;4.72;;;21.20;62.30;;;;;;6260380;22;20026;-96
2023/05/20 11:29:26;;;;;;;12.50;5.55;;;21.20;62.40;;;;;;6261285;22;20011;-95
2023/05/20 11:31:51;;;;;;;13.45;5.82;;;21.30;62.90;;;;;;6263681;22;20020;-93
2023/05/20 11:34:21;;;;;;;10.05;5.03;;;21.40;62.70;;;;;;6265109;22;20045;-96
2023/05/20 11:36:51;;;;;;;12.00;5.57;;;21.50;62.10;;;;;;6262780;22;20003;-96
2023/05/20 11:39:16;;;;;;;10.20;5.60;;;21.60;61.80;;;;;;6238318;22;20241;-96
2023/05/20 11:41:42;;;;;;;8.38;5.20;;;21.70;61.00;;;;;;6265011;22;20007;-95
2023/05/20 11:44:12;;;;;;;10.68;5.55;;;21.70;60.80;;;;;;6262205;22;20034;-95
2023/05/20 11:46:46;;;;;;;7.78;4.93;;;21.80;60.80;;;;;;6262443;22;20008;-95
2023/05/20 11:49:15;;;;;;;10.85;5.13;;;22.00;60.70;;;;;;6266423;22;20000;-95
2023/05/20 11:51:44;;;;;;;8.77;5.50;;;22.30;60.80;;;;;;6262247;22;20019;-95
2023/05/20 11:54:10;;;;;;;10.85;5.03;;;22.60;60.50;;;;;;6263504;22;20003;-95
2023/05/20 11:56:37;;;;;;;10.75;4.85;;;22.70;59.30;;;;;;6263946;22;20004;-96
2023/05/20 11:59:09;;;;;;;10.18;4.63;;;22.70;58.90;;;;;;6263049;22;20007;-94
2023/05/20 12:01:42;;;;;;;7.25;4.40;;;22.60;58.50;;;;;;6263526;22;20000;-94
2023/05/20 12:04:08;;;;;;;51.38;11.73;;;22.40;58.60;;;;;;6262719;22;20007;-93
2023/05/20 12:06:36;;;;;;;16.63;5.72;;;22.40;59.40;;;;;;6256257;22;20510;-94
2023/05/20 12:09:07;;;;;;;8.82;4.80;;;22.50;59.60;;;;;;6259005;22;20037;-96
2023/05/20 12:11:40;;;;;;;13.10;4.78;;;22.70;59.50;;;;;;6257695;22;20015;-96
2023/05/20 12:14:06;;;;;;;10.52;4.70;;;22.90;59.50;;;;;;6253304;22;20000;-93
2023/05/20 12:16:33;;;;;;;11.05;4.95;;;23.00;59.20;;;;;;6252320;22;20008;-96
2023/05/20 12:18:59;;;;;;;10.80;5.30;;;23.00;58.90;;;;;;6261911;22;20004;-94
2023/05/20 12:21:27;;;;;;;12.20;5.30;;;23.20;58.70;;;;;;6260668;22;20458;-94
2023/05/20 12:23:56;;;;;;;15.07;4.90;;;23.40;58.70;;;;;;6255470;22;20331;-95
2023/05/20 12:26:27;;;;;;;11.40;4.75;;;23.70;58.70;;;;;;6256401;22;20461;-94
2023/05/20 12:28:53;;;;;;;8.40;5.50;;;23.90;58.20;;;;;;6269509;22;20030;-95
2023/05/20 12:31:19;;;;;;;12.55;5.22;;;23.70;57.50;;;;;;6264365;22;20035;-95
2023/05/20 12:33:45;;;;;;;12.63;6.00;;;23.60;57.50;;;;;;6263690;22;20000;-95
2023/05/20 12:36:11;;;;;;;12.45;5.65;;;23.60;57.80;;;;;;6267675;22;20000;-94
2023/05/20 12:38:37;;;;;;;12.35;5.40;;;23.60;57.90;;;;;;6266361;22;20012;-95
2023/05/20 12:41:03;;;;;;;12.45;6.30;;;23.70;57.80;;;;;;6266754;22;20031;-95
2023/05/20 12:43:29;;;;;;;11.20;6.03;;;23.90;57.70;;;;;;6265608;22;20061;-93
2023/05/20 12:45:55;;;;;;;8.85;5.93;;;24.00;57.70;;;;;;6265091;22;20004;-94
2023/05/20 12:48:20;;;;;;;9.80;5.90;;;24.20;57.60;;;;;;6265181;22;20004;-93
2023/05/20 12:50:46;;;;;;;10.13;5.35;;;24.20;57.30;;;;;;6264309;22;20038;-93